sensor_id;sensor_type;location;lat;lon;timestamp;temperature;humidity
6468;DHT22;3267;48.794;9.928;2023-08-01T04:01:05;21.30;69.00
6468;DHT22;3267;48.794;9.928;2023-08-01T04:03:34;23.20;71.60
6468;DHT22;3267;48.794;9.928;2023-08-01T04:06:00;21.30;70.80
6468;DHT22;3267;48.794;9.928;2023-08-01T04:08:25;21.20;70.10
6468;DHT22;3267;48.794;9.928;2023-08-01T04:10:51;21.40;69.50
6468;DHT22;3267;48.794;9.928;2023-08-01T04:13:16;21.20;69.80
6468;DHT22;3267;48.794;9.928;2023-08-01T04:15:42;20.90;69.40
6468;DHT22;3267;48.794;9.928;2023-08-01T04:18:08;20.90;71.00
6468;DHT22;3267;48.794;9.928;2023-08-01T04:20:33;20.90;69.50
6468;DHT22;3267;48.794;9.928;2023-08-01T04:23:00;21.10;70.40
6468;DHT22;3267;48.794;9.928;2023-08-01T04:25:27;21.20;71.20
6468;DHT22;3267;48.794;9.928;2023-08-01T04:27:53;21.10;70.10
6468;DHT22;3267;48.794;9.928;2023-08-01T04:30:19;21.40;70.60
6468;DHT22;3267;48.794;9.928;2023-08-01T04:32:44;21.70;71.60
6468;DHT22;3267;48.794;9.928;2023-08-01T04:35:10;22.50;70.90
6468;DHT22;3267;48.794;9.928;2023-08-01T04:37:36;21.40;70.10
6468;DHT22;3267;48.794;9.928;2023-08-01T04:40:02;23.10;72.90
6468;DHT22;3267;48.794;9.928;2023-08-01T04:42:28;21.50;71.30
6468;DHT22;3267;48.794;9.928;2023-08-01T04:44:54;21.30;69.80
6468;DHT22;3267;48.794;9.928;2023-08-01T04:47:20;21.70;70.80
6468;DHT22;3267;48.794;9.928;2023-08-01T04:49:46;21.80;72.20
6468;DHT22;3267;48.794;9.928;2023-08-01T04:52:12;21.50;69.50
6468;DHT22;3267;48.794;9.928;2023-08-01T04:54:38;21.30;70.80
6468;DHT22;3267;48.794;9.928;2023-08-01T04:57:04;21.30;70.60
6468;DHT22;3267;48.794;9.928;2023-08-01T04:59:29;21.30;70.50
6468;DHT22;3267;48.794;9.928;2023-08-01T05:01:55;21.30;70.00
6468;DHT22;3267;48.794;9.928;2023-08-01T05:04:21;21.70;70.50
6468;DHT22;3267;48.794;9.928;2023-08-01T05:06:46;21.40;71.50
6468;DHT22;3267;48.794;9.928;2023-08-01T05:09:12;21.20;69.70
6468;DHT22;3267;48.794;9.928;2023-08-01T05:11:39;21.50;71.80
6468;DHT22;3267;48.794;9.928;2023-08-01T05:14:05;21.50;71.20
6468;DHT22;3267;48.794;9.928;2023-08-01T05:16:31;21.40;69.80
6468;DHT22;3267;48.794;9.928;2023-08-01T05:18:56;21.40;69.70
6468;DHT22;3267;48.794;9.928;2023-08-01T05:21:22;21.50;70.90
6468;DHT22;3267;48.794;9.928;2023-08-01T05:23:48;23.10;71.40
6468;DHT22;3267;48.794;9.928;2023-08-01T05:26:14;22.90;72.70
6468;DHT22;3267;48.794;9.928;2023-08-01T05:28:40;21.20;69.50
6468;DHT22;3267;48.794;9.928;2023-08-01T05:31:07;21.20;69.50
6468;DHT22;3267;48.794;9.928;2023-08-01T05:33:33;21.00;69.70
6468;DHT22;3267;48.794;9.928;2023-08-01T05:35:58;21.00;69.80
6468;DHT22;3267;48.794;9.928;2023-08-01T05:38:24;21.00;69.80
6468;DHT22;3267;48.794;9.928;2023-08-01T05:40:50;20.90;70.20
6468;DHT22;3267;48.794;9.928;2023-08-01T05:43:15;20.90;70.70
6468;DHT22;3267;48.794;9.928;2023-08-01T05:45:41;20.90;71.00
6468;DHT22;3267;48.794;9.928;2023-08-01T05:48:07;20.80;70.80
6468;DHT22;3267;48.794;9.928;2023-08-01T05:50:32;20.80;70.90
6468;DHT22;3267;48.794;9.928;2023-08-01T05:52:58;21.30;71.00
6468;DHT22;3267;48.794;9.928;2023-08-01T05:55:23;20.80;71.60
6468;DHT22;3267;48.794;9.928;2023-08-01T05:57:49;20.80;71.30
6468;DHT22;3267;48.794;9.928;2023-08-01T06:00:18;20.90;71.00
6468;DHT22;3267;48.794;9.928;2023-08-01T06:02:46;20.80;70.70
6468;DHT22;3267;48.794;9.928;2023-08-01T06:05:12;21.20;71.50
6468;DHT22;3267;48.794;9.928;2023-08-01T06:07:38;21.40;70.70
6468;DHT22;3267;48.794;9.928;2023-08-01T06:10:04;22.10;70.60
6468;DHT22;3267;48.794;9.928;2023-08-01T06:12:30;21.30;71.10
6468;DHT22;3267;48.794;9.928;2023-08-01T06:14:55;21.20;69.90
6468;DHT22;3267;48.794;9.928;2023-08-01T06:17:21;21.40;71.10
6468;DHT22;3267;48.794;9.928;2023-08-01T06:19:47;21.30;70.20
6468;DHT22;3267;48.794;9.928;2023-08-01T06:22:13;21.50;71.90
6468;DHT22;3267;48.794;9.928;2023-08-01T06:24:39;21.40;70.10
6468;DHT22;3267;48.794;9.928;2023-08-01T06:27:04;21.30;70.10
6468;DHT22;3267;48.794;9.928;2023-08-01T06:29:31;21.10;70.10
6468;DHT22;3267;48.794;9.928;2023-08-01T06:31:56;21.10;70.20
6468;DHT22;3267;48.794;9.928;2023-08-01T06:34:22;21.10;69.90
6468;DHT22;3267;48.794;9.928;2023-08-01T06:36:49;21.00;70.20
6468;DHT22;3267;48.794;9.928;2023-08-01T06:39:16;21.10;69.90
6468;DHT22;3267;48.794;9.928;2023-08-01T06:41:43;21.10;70.20
6468;DHT22;3267;48.794;9.928;2023-08-01T06:44:10;22.50;71.90
6468;DHT22;3267;48.794;9.928;2023-08-01T06:46:36;21.00;70.30
6468;DHT22;3267;48.794;9.928;2023-08-01T06:49:02;20.90;70.60
6468;DHT22;3267;48.794;9.928;2023-08-01T06:51:27;23.40;73.40
6468;DHT22;3267;48.794;9.928;2023-08-01T06:53:53;20.90;71.50
6468;DHT22;3267;48.794;9.928;2023-08-01T06:56:19;20.80;71.40
6468;DHT22;3267;48.794;9.928;2023-08-01T06:58:44;20.80;71.30
6468;DHT22;3267;48.794;9.928;2023-08-01T07:01:10;20.80;71.70
6468;DHT22;3267;48.794;9.928;2023-08-01T07:03:35;20.80;71.50
6468;DHT22;3267;48.794;9.928;2023-08-01T07:06:01;20.90;71.40
6468;DHT22;3267;48.794;9.928;2023-08-01T07:08:28;20.80;71.60
6468;DHT22;3267;48.794;9.928;2023-08-01T07:10:53;20.80;71.20
6468;DHT22;3267;48.794;9.928;2023-08-01T07:13:19;21.30;72.60
6468;DHT22;3267;48.794;9.928;2023-08-01T07:15:48;23.50;73.70
6468;DHT22;3267;48.794;9.928;2023-08-01T07:18:13;20.90;71.00
6468;DHT22;3267;48.794;9.928;2023-08-01T07:20:40;20.80;70.90
6468;DHT22;3267;48.794;9.928;2023-08-01T07:23:06;20.80;71.10
6468;DHT22;3267;48.794;9.928;2023-08-01T07:25:32;20.60;70.70
6468;DHT22;3267;48.794;9.928;2023-08-01T07:27:57;20.60;71.50
6468;DHT22;3267;48.794;9.928;2023-08-01T07:30:23;22.30;73.70
6468;DHT22;3267;48.794;9.928;2023-08-01T07:32:49;22.20;73.80
6468;DHT22;3267;48.794;9.928;2023-08-01T07:35:14;20.50;72.70
6468;DHT22;3267;48.794;9.928;2023-08-01T07:37:40;21.00;72.10
6468;DHT22;3267;48.794;9.928;2023-08-01T07:40:06;21.40;73.30
6468;DHT22;3267;48.794;9.928;2023-08-01T07:42:32;20.60;71.80
6468;DHT22;3267;48.794;9.928;2023-08-01T07:44:58;20.60;71.70
6468;DHT22;3267;48.794;9.928;2023-08-01T07:47:23;20.90;72.20
6468;DHT22;3267;48.794;9.928;2023-08-01T07:49:50;22.10;74.10
6468;DHT22;3267;48.794;9.928;2023-08-01T07:52:16;21.80;73.60
6468;DHT22;3267;48.794;9.928;2023-08-01T07:54:42;23.40;74.10
6468;DHT22;3267;48.794;9.928;2023-08-01T07:57:07;23.50;74.80
6468;DHT22;3267;48.794;9.928;2023-08-01T07:59:33;21.40;73.50
6468;DHT22;3267;48.794;9.928;2023-08-01T08:01:59;23.30;74.80
6468;DHT22;3267;48.794;9.928;2023-08-01T08:04:24;20.60;72.00
6468;DHT22;3267;48.794;9.928;2023-08-01T08:06:50;21.40;73.00
6468;DHT22;3267;48.794;9.928;2023-08-01T08:09:17;20.50;72.80
6468;DHT22;3267;48.794;9.928;2023-08-01T08:11:43;20.40;71.80
6468;DHT22;3267;48.794;9.928;2023-08-01T08:14:08;20.40;72.30
6468;DHT22;3267;48.794;9.928;2023-08-01T08:16:34;20.50;71.90
6468;DHT22;3267;48.794;9.928;2023-08-01T08:19:00;22.70;73.40
6468;DHT22;3267;48.794;9.928;2023-08-01T08:21:26;20.50;72.10
6468;DHT22;3267;48.794;9.928;2023-08-01T08:23:53;20.70;72.70
6468;DHT22;3267;48.794;9.928;2023-08-01T08:26:19;20.60;72.10
6468;DHT22;3267;48.794;9.928;2023-08-01T08:28:45;20.60;73.10
6468;DHT22;3267;48.794;9.928;2023-08-01T08:31:11;20.50;71.80
6468;DHT22;3267;48.794;9.928;2023-08-01T08:33:37;20.80;74.10
6468;DHT22;3267;48.794;9.928;2023-08-01T08:36:03;22.30;75.50
6468;DHT22;3267;48.794;9.928;2023-08-01T08:38:28;21.00;75.40
6468;DHT22;3267;48.794;9.928;2023-08-01T08:44:04;21.10;73.70
6468;DHT22;3267;48.794;9.928;2023-08-01T08:46:34;21.00;73.60
6468;DHT22;3267;48.794;9.928;2023-08-01T08:49:04;21.20;73.40
6468;DHT22;3267;48.794;9.928;2023-08-01T08:51:31;22.10;73.90
6468;DHT22;3267;48.794;9.928;2023-08-01T08:53:57;21.00;72.40
6468;DHT22;3267;48.794;9.928;2023-08-01T08:56:23;20.90;74.40
6468;DHT22;3267;48.794;9.928;2023-08-01T08:58:49;20.80;72.70
6468;DHT22;3267;48.794;9.928;2023-08-01T09:01:15;20.80;73.30
6468;DHT22;3267;48.794;9.928;2023-08-01T09:03:42;20.80;73.00
6468;DHT22;3267;48.794;9.928;2023-08-01T09:06:15;20.70;72.70
6468;DHT22;3267;48.794;9.928;2023-08-01T09:08:51;20.90;74.60
6468;DHT22;3267;48.794;9.928;2023-08-01T09:11:21;20.80;73.20
6468;DHT22;3267;48.794;9.928;2023-08-01T09:13:50;20.80;73.00
6468;DHT22;3267;48.794;9.928;2023-08-01T09:16:16;21.80;73.80
6468;DHT22;3267;48.794;9.928;2023-08-01T09:18:52;20.70;72.30
6468;DHT22;3267;48.794;9.928;2023-08-01T09:21:21;21.50;74.80
6468;DHT22;3267;48.794;9.928;2023-08-01T09:23:48;21.00;73.30
6468;DHT22;3267;48.794;9.928;2023-08-01T09:26:15;20.80;73.00
6468;DHT22;3267;48.794;9.928;2023-08-01T09:29:05;23.10;75.60
6468;DHT22;3267;48.794;9.928;2023-08-01T09:31:33;20.80;72.80
6468;DHT22;3267;48.794;9.928;2023-08-01T09:33:59;21.00;73.80
6468;DHT22;3267;48.794;9.928;2023-08-01T09:36:25;21.40;73.60
6468;DHT22;3267;48.794;9.928;2023-08-01T09:38:51;22.10;74.40
6468;DHT22;3267;48.794;9.928;2023-08-01T09:41:18;21.20;73.00
6468;DHT22;3267;48.794;9.928;2023-08-01T09:43:46;21.80;77.50
6468;DHT22;3267;48.794;9.928;2023-08-01T09:46:12;23.20;75.20
6468;DHT22;3267;48.794;9.928;2023-08-01T09:48:38;22.70;74.90
6468;DHT22;3267;48.794;9.928;2023-08-01T09:51:15;21.80;75.90
6468;DHT22;3267;48.794;9.928;2023-08-01T09:53:56;21.70;76.20
6468;DHT22;3267;48.794;9.928;2023-08-01T09:56:24;21.80;76.70
6468;DHT22;3267;48.794;9.928;2023-08-01T09:58:52;21.60;73.80
6468;DHT22;3267;48.794;9.928;2023-08-01T10:01:20;21.50;73.70
6468;DHT22;3267;48.794;9.928;2023-08-01T10:03:48;22.30;74.50
6468;DHT22;3267;48.794;9.928;2023-08-01T10:06:18;22.30;74.70
6468;DHT22;3267;48.794;9.928;2023-08-01T10:08:48;21.30;73.80
6468;DHT22;3267;48.794;9.928;2023-08-01T10:11:16;21.20;74.80
6468;DHT22;3267;48.794;9.928;2023-08-01T10:13:42;21.20;74.10
6468;DHT22;3267;48.794;9.928;2023-08-01T10:16:08;21.50;76.00
6468;DHT22;3267;48.794;9.928;2023-08-01T10:18:34;23.10;77.60
6468;DHT22;3267;48.794;9.928;2023-08-01T10:21:04;21.50;75.70
6468;DHT22;3267;48.794;9.928;2023-08-01T10:23:30;21.50;76.50
6468;DHT22;3267;48.794;9.928;2023-08-01T10:25:56;21.70;76.70
6468;DHT22;3267;48.794;9.928;2023-08-01T10:28:35;21.50;74.60
6468;DHT22;3267;48.794;9.928;2023-08-01T10:31:15;21.60;78.90
6468;DHT22;3267;48.794;9.928;2023-08-01T10:33:46;21.80;75.30
6468;DHT22;3267;48.794;9.928;2023-08-01T10:36:25;21.40;74.60
6468;DHT22;3267;48.794;9.928;2023-08-01T10:38:55;21.30;74.80
6468;DHT22;3267;48.794;9.928;2023-08-01T10:41:35;22.40;76.90
6468;DHT22;3267;48.794;9.928;2023-08-01T10:44:15;21.50;75.10
6468;DHT22;3267;48.794;9.928;2023-08-01T10:46:59;22.40;75.60
6468;DHT22;3267;48.794;9.928;2023-08-01T10:49:36;21.40;74.60
6468;DHT22;3267;48.794;9.928;2023-08-01T10:52:03;21.60;75.10
6468;DHT22;3267;48.794;9.928;2023-08-01T10:54:29;21.80;78.50
6468;DHT22;3267;48.794;9.928;2023-08-01T10:56:59;21.70;74.90
6468;DHT22;3267;48.794;9.928;2023-08-01T10:59:25;21.80;77.50
6468;DHT22;3267;48.794;9.928;2023-08-01T11:01:52;21.80;75.50
6468;DHT22;3267;48.794;9.928;2023-08-01T11:04:22;22.70;77.70
6468;DHT22;3267;48.794;9.928;2023-08-01T11:06:50;21.80;76.10
6468;DHT22;3267;48.794;9.928;2023-08-01T11:09:18;21.80;75.20
6468;DHT22;3267;48.794;9.928;2023-08-01T11:11:44;22.20;79.90
6468;DHT22;3267;48.794;9.928;2023-08-01T11:14:16;22.50;78.50
6468;DHT22;3267;48.794;9.928;2023-08-01T11:16:43;22.70;80.90
6468;DHT22;3267;48.794;9.928;2023-08-01T11:19:23;23.00;79.60
6468;DHT22;3267;48.794;9.928;2023-08-01T11:21:50;23.10;79.10
6468;DHT22;3267;48.794;9.928;2023-08-01T11:24:17;23.20;79.40
6468;DHT22;3267;48.794;9.928;2023-08-01T11:26:44;23.20;78.50
6468;DHT22;3267;48.794;9.928;2023-08-01T11:29:11;23.30;80.00
6468;DHT22;3267;48.794;9.928;2023-08-01T11:31:38;23.50;80.50
6468;DHT22;3267;48.794;9.928;2023-08-01T11:34:03;23.60;78.70
6468;DHT22;3267;48.794;9.928;2023-08-01T11:36:29;23.60;77.10
6468;DHT22;3267;48.794;9.928;2023-08-01T11:38:59;23.70;77.00
6468;DHT22;3267;48.794;9.928;2023-08-01T11:41:29;23.70;76.60
6468;DHT22;3267;48.794;9.928;2023-08-01T11:43:55;23.80;76.10
6468;DHT22;3267;48.794;9.928;2023-08-01T11:46:21;23.70;75.80
6468;DHT22;3267;48.794;9.928;2023-08-01T11:48:48;23.70;75.40
6468;DHT22;3267;48.794;9.928;2023-08-01T11:51:15;23.70;75.20
6468;DHT22;3267;48.794;9.928;2023-08-01T11:53:41;23.80;75.60
6468;DHT22;3267;48.794;9.928;2023-08-01T11:56:07;23.70;75.10
6468;DHT22;3267;48.794;9.928;2023-08-01T11:58:36;23.80;74.90
6468;DHT22;3267;48.794;9.928;2023-08-01T12:01:07;23.50;74.70
6468;DHT22;3267;48.794;9.928;2023-08-01T12:03:46;23.50;75.00
6468;DHT22;3267;48.794;9.928;2023-08-01T12:06:12;23.40;75.00
6468;DHT22;3267;48.794;9.928;2023-08-01T12:08:43;23.60;75.20
6468;DHT22;3267;48.794;9.928;2023-08-01T12:11:23;23.40;75.00
6468;DHT22;3267;48.794;9.928;2023-08-01T12:14:11;23.30;74.80
6468;DHT22;3267;48.794;9.928;2023-08-01T12:16:38;23.20;74.50
6468;DHT22;3267;48.794;9.928;2023-08-01T12:19:08;23.20;74.90
6468;DHT22;3267;48.794;9.928;2023-08-01T12:21:34;23.10;74.50
6468;DHT22;3267;48.794;9.928;2023-08-01T12:24:02;23.10;74.50
6468;DHT22;3267;48.794;9.928;2023-08-01T12:26:29;23.20;74.40
6468;DHT22;3267;48.794;9.928;2023-08-01T12:28:54;23.40;74.50
6468;DHT22;3267;48.794;9.928;2023-08-01T12:31:21;23.10;74.10
6468;DHT22;3267;48.794;9.928;2023-08-01T12:33:48;23.10;73.80
6468;DHT22;3267;48.794;9.928;2023-08-01T12:36:16;23.10;73.30
6468;DHT22;3267;48.794;9.928;2023-08-01T12:38:42;23.10;72.70
6468;DHT22;3267;48.794;9.928;2023-08-01T12:41:08;23.20;72.60
6468;DHT22;3267;48.794;9.928;2023-08-01T12:43:33;23.20;71.70
6468;DHT22;3267;48.794;9.928;2023-08-01T12:45:59;23.10;70.00
6468;DHT22;3267;48.794;9.928;2023-08-01T12:48:26;23.10;71.00
6468;DHT22;3267;48.794;9.928;2023-08-01T12:50:52;23.00;70.70
6468;DHT22;3267;48.794;9.928;2023-08-01T12:53:18;22.90;70.10
6468;DHT22;3267;48.794;9.928;2023-08-01T12:55:48;22.90;70.90
6468;DHT22;3267;48.794;9.928;2023-08-01T12:58:14;22.80;69.70
6468;DHT22;3267;48.794;9.928;2023-08-01T13:00:41;22.80;69.80
6468;DHT22;3267;48.794;9.928;2023-08-01T13:03:08;22.80;69.60
6468;DHT22;3267;48.794;9.928;2023-08-01T13:05:34;22.80;69.90
6468;DHT22;3267;48.794;9.928;2023-08-01T13:08:00;22.90;70.10
6468;DHT22;3267;48.794;9.928;2023-08-01T13:10:29;23.10;70.20
6468;DHT22;3267;48.794;9.928;2023-08-01T13:12:54;23.90;71.30
6468;DHT22;3267;48.794;9.928;2023-08-01T13:15:20;23.30;69.70
6468;DHT22;3267;48.794;9.928;2023-08-01T13:17:45;25.40;71.20
6468;DHT22;3267;48.794;9.928;2023-08-01T13:20:11;23.60;67.60
6468;DHT22;3267;48.794;9.928;2023-08-01T13:22:37;23.70;68.00
6468;DHT22;3267;48.794;9.928;2023-08-01T13:25:03;25.40;69.70
6468;DHT22;3267;48.794;9.928;2023-08-01T13:27:29;23.90;67.20
6468;DHT22;3267;48.794;9.928;2023-08-01T13:29:55;24.10;66.90
6468;DHT22;3267;48.794;9.928;2023-08-01T13:32:20;24.40;67.10
6468;DHT22;3267;48.794;9.928;2023-08-01T13:34:46;24.60;67.30
6468;DHT22;3267;48.794;9.928;2023-08-01T13:37:13;24.90;66.90
6468;DHT22;3267;48.794;9.928;2023-08-01T13:39:38;25.20;65.80
6468;DHT22;3267;48.794;9.928;2023-08-01T13:42:04;25.50;65.00
6468;DHT22;3267;48.794;9.928;2023-08-01T13:44:30;25.70;64.80
6468;DHT22;3267;48.794;9.928;2023-08-01T13:46:55;26.00;63.50
6468;DHT22;3267;48.794;9.928;2023-08-01T13:49:21;26.20;63.20
6468;DHT22;3267;48.794;9.928;2023-08-01T13:51:46;26.30;62.00
6468;DHT22;3267;48.794;9.928;2023-08-01T13:54:12;26.20;61.80
6468;DHT22;3267;48.794;9.928;2023-08-01T13:56:38;26.80;62.30
6468;DHT22;3267;48.794;9.928;2023-08-01T13:59:03;26.00;62.00
6468;DHT22;3267;48.794;9.928;2023-08-01T14:01:29;26.10;61.30
6468;DHT22;3267;48.794;9.928;2023-08-01T14:03:55;26.20;61.30
6468;DHT22;3267;48.794;9.928;2023-08-01T14:06:20;26.20;61.70
6468;DHT22;3267;48.794;9.928;2023-08-01T14:08:46;26.40;62.00
6468;DHT22;3267;48.794;9.928;2023-08-01T14:11:11;26.70;61.70
6468;DHT22;3267;48.794;9.928;2023-08-01T14:13:37;27.10;61.30
6468;DHT22;3267;48.794;9.928;2023-08-01T14:16:03;27.60;60.00
6468;DHT22;3267;48.794;9.928;2023-08-01T14:18:29;28.00;59.20
6468;DHT22;3267;48.794;9.928;2023-08-01T14:20:55;28.30;58.30
6468;DHT22;3267;48.794;9.928;2023-08-01T14:23:21;28.60;58.40
6468;DHT22;3267;48.794;9.928;2023-08-01T14:25:47;28.90;57.70
6468;DHT22;3267;48.794;9.928;2023-08-01T14:28:13;29.30;57.20
6468;DHT22;3267;48.794;9.928;2023-08-01T14:30:39;29.60;56.70
6468;DHT22;3267;48.794;9.928;2023-08-01T14:33:07;29.60;55.90
6468;DHT22;3267;48.794;9.928;2023-08-01T14:35:34;29.30;56.10
6468;DHT22;3267;48.794;9.928;2023-08-01T14:38:00;28.90;55.60
6468;DHT22;3267;48.794;9.928;2023-08-01T14:40:26;28.50;56.60
6468;DHT22;3267;48.794;9.928;2023-08-01T14:42:53;28.30;58.20
6468;DHT22;3267;48.794;9.928;2023-08-01T14:45:19;28.30;57.90
6468;DHT22;3267;48.794;9.928;2023-08-01T14:47:44;28.50;56.60
6468;DHT22;3267;48.794;9.928;2023-08-01T14:50:11;28.90;57.10
6468;DHT22;3267;48.794;9.928;2023-08-01T14:52:38;29.50;55.70
6468;DHT22;3267;48.794;9.928;2023-08-01T14:55:04;30.00;55.50
6468;DHT22;3267;48.794;9.928;2023-08-01T14:57:30;30.20;53.20
6468;DHT22;3267;48.794;9.928;2023-08-01T14:59:55;30.30;53.10
6468;DHT22;3267;48.794;9.928;2023-08-01T15:02:21;30.30;53.00
6468;DHT22;3267;48.794;9.928;2023-08-01T15:04:54;30.40;53.50
6468;DHT22;3267;48.794;9.928;2023-08-01T15:07:24;30.50;53.40
6468;DHT22;3267;48.794;9.928;2023-08-01T15:09:51;30.60;52.50
6468;DHT22;3267;48.794;9.928;2023-08-01T15:12:18;30.70;53.20
6468;DHT22;3267;48.794;9.928;2023-08-01T15:14:50;30.70;53.20
6468;DHT22;3267;48.794;9.928;2023-08-01T15:17:16;30.50;53.60
6468;DHT22;3267;48.794;9.928;2023-08-01T15:19:41;30.60;53.80
6468;DHT22;3267;48.794;9.928;2023-08-01T15:22:07;30.80;53.30
6468;DHT22;3267;48.794;9.928;2023-08-01T15:24:33;31.10;54.10
6468;DHT22;3267;48.794;9.928;2023-08-01T15:26:58;31.20;53.50
6468;DHT22;3267;48.794;9.928;2023-08-01T15:29:24;31.40;53.20
6468;DHT22;3267;48.794;9.928;2023-08-01T15:31:50;31.50;52.30
6468;DHT22;3267;48.794;9.928;2023-08-01T15:34:17;31.90;53.00
6468;DHT22;3267;48.794;9.928;2023-08-01T15:36:46;32.40;52.30
6468;DHT22;3267;48.794;9.928;2023-08-01T15:39:15;33.00;52.30
6468;DHT22;3267;48.794;9.928;2023-08-01T15:41:41;33.40;51.20
6468;DHT22;3267;48.794;9.928;2023-08-01T15:44:07;33.50;50.00
6468;DHT22;3267;48.794;9.928;2023-08-01T15:46:33;33.30;51.10
6468;DHT22;3267;48.794;9.928;2023-08-01T15:48:59;32.90;51.30
6468;DHT22;3267;48.794;9.928;2023-08-01T15:51:25;32.30;50.60
6468;DHT22;3267;48.794;9.928;2023-08-01T15:53:51;31.70;51.20
6468;DHT22;3267;48.794;9.928;2023-08-01T15:56:16;31.30;51.50
6468;DHT22;3267;48.794;9.928;2023-08-01T15:58:42;30.80;51.10
6468;DHT22;3267;48.794;9.928;2023-08-01T16:01:08;30.90;52.00
6468;DHT22;3267;48.794;9.928;2023-08-01T16:03:36;31.00;52.00
6468;DHT22;3267;48.794;9.928;2023-08-01T16:06:03;31.00;52.00
6468;DHT22;3267;48.794;9.928;2023-08-01T16:08:29;31.10;52.20
6468;DHT22;3267;48.794;9.928;2023-08-01T16:10:54;31.30;51.50
6468;DHT22;3267;48.794;9.928;2023-08-01T16:13:20;31.20;51.60
6468;DHT22;3267;48.794;9.928;2023-08-01T16:15:46;31.00;51.40
6468;DHT22;3267;48.794;9.928;2023-08-01T16:18:12;30.60;50.80
6468;DHT22;3267;48.794;9.928;2023-08-01T16:20:37;30.10;50.10
6468;DHT22;3267;48.794;9.928;2023-08-01T16:23:03;29.70;50.00
6468;DHT22;3267;48.794;9.928;2023-08-01T16:25:29;29.20;49.60
6468;DHT22;3267;48.794;9.928;2023-08-01T16:27:55;28.80;50.60
6468;DHT22;3267;48.794;9.928;2023-08-01T16:30:20;28.40;51.40
6468;DHT22;3267;48.794;9.928;2023-08-01T16:32:46;28.10;51.90
6468;DHT22;3267;48.794;9.928;2023-08-01T16:35:13;28.00;53.70
6468;DHT22;3267;48.794;9.928;2023-08-01T16:37:40;27.90;52.20
6468;DHT22;3267;48.794;9.928;2023-08-01T16:40:06;27.70;52.00
6468;DHT22;3267;48.794;9.928;2023-08-01T16:42:35;27.60;52.40
6468;DHT22;3267;48.794;9.928;2023-08-01T16:45:01;27.40;53.70
6468;DHT22;3267;48.794;9.928;2023-08-01T16:47:27;27.30;52.10
6468;DHT22;3267;48.794;9.928;2023-08-01T16:49:56;27.00;52.70
6468;DHT22;3267;48.794;9.928;2023-08-01T16:52:22;26.90;53.10
6468;DHT22;3267;48.794;9.928;2023-08-01T16:54:48;26.80;53.70
6468;DHT22;3267;48.794;9.928;2023-08-01T16:57:13;26.70;54.00
6468;DHT22;3267;48.794;9.928;2023-08-01T16:59:39;26.70;54.80
6468;DHT22;3267;48.794;9.928;2023-08-01T17:02:06;26.80;55.70
6468;DHT22;3267;48.794;9.928;2023-08-01T17:04:32;26.70;54.80
6468;DHT22;3267;48.794;9.928;2023-08-01T17:06:59;26.70;55.40
6468;DHT22;3267;48.794;9.928;2023-08-01T17:09:27;26.70;54.00
6468;DHT22;3267;48.794;9.928;2023-08-01T17:11:53;26.60;53.90
6468;DHT22;3267;48.794;9.928;2023-08-01T17:14:19;26.40;54.70
6468;DHT22;3267;48.794;9.928;2023-08-01T17:16:45;26.50;54.30
6468;DHT22;3267;48.794;9.928;2023-08-01T17:19:13;26.60;54.70
6468;DHT22;3267;48.794;9.928;2023-08-01T17:21:39;26.70;54.10
6468;DHT22;3267;48.794;9.928;2023-08-01T17:24:07;26.80;54.00
6468;DHT22;3267;48.794;9.928;2023-08-01T17:26:33;27.00;55.20
6468;DHT22;3267;48.794;9.928;2023-08-01T17:28:58;27.20;54.80
6468;DHT22;3267;48.794;9.928;2023-08-01T17:31:24;27.50;54.80
6468;DHT22;3267;48.794;9.928;2023-08-01T17:33:51;27.80;54.80
6468;DHT22;3267;48.794;9.928;2023-08-01T17:36:17;28.20;54.10
6468;DHT22;3267;48.794;9.928;2023-08-01T17:38:43;28.90;54.00
6468;DHT22;3267;48.794;9.928;2023-08-01T17:41:23;29.60;53.50
6468;DHT22;3267;48.794;9.928;2023-08-01T17:43:50;30.30;53.20
6468;DHT22;3267;48.794;9.928;2023-08-01T17:46:16;30.70;51.50
6468;DHT22;3267;48.794;9.928;2023-08-01T17:48:42;30.80;50.20
6468;DHT22;3267;48.794;9.928;2023-08-01T17:51:09;28.60;49.80
6468;DHT22;3267;48.794;9.928;2023-08-01T17:53:35;30.00;51.60
6468;DHT22;3267;48.794;9.928;2023-08-01T17:56:04;29.40;51.50
6468;DHT22;3267;48.794;9.928;2023-08-01T17:58:33;29.00;52.40
6468;DHT22;3267;48.794;9.928;2023-08-01T18:00:58;28.40;52.80
6468;DHT22;3267;48.794;9.928;2023-08-01T18:03:24;28.00;53.60
6468;DHT22;3267;48.794;9.928;2023-08-01T18:05:50;27.70;54.60
6468;DHT22;3267;48.794;9.928;2023-08-01T18:08:26;27.50;55.10
6468;DHT22;3267;48.794;9.928;2023-08-01T18:10:53;27.20;55.20
6468;DHT22;3267;48.794;9.928;2023-08-01T18:13:19;27.50;54.90
6468;DHT22;3267;48.794;9.928;2023-08-01T18:15:47;26.80;54.30
6468;DHT22;3267;48.794;9.928;2023-08-01T18:18:12;26.60;55.00
6468;DHT22;3267;48.794;9.928;2023-08-01T18:20:38;26.20;54.90
6468;DHT22;3267;48.794;9.928;2023-08-01T18:23:05;26.20;56.20
6468;DHT22;3267;48.794;9.928;2023-08-01T18:25:33;27.30;56.00
6468;DHT22;3267;48.794;9.928;2023-08-01T18:27:59;25.90;56.40
6468;DHT22;3267;48.794;9.928;2023-08-01T18:30:29;26.20;57.00
6468;DHT22;3267;48.794;9.928;2023-08-01T18:33:00;25.60;56.60
6468;DHT22;3267;48.794;9.928;2023-08-01T18:35:26;25.50;56.40
6468;DHT22;3267;48.794;9.928;2023-08-01T18:37:52;25.20;56.90
6468;DHT22;3267;48.794;9.928;2023-08-01T18:40:18;25.30;57.00
6468;DHT22;3267;48.794;9.928;2023-08-01T18:42:44;25.20;57.40
6468;DHT22;3267;48.794;9.928;2023-08-01T18:45:10;27.10;59.00
6468;DHT22;3267;48.794;9.928;2023-08-01T18:47:36;24.90;56.20
6468;DHT22;3267;48.794;9.928;2023-08-01T18:50:05;24.70;56.40
6468;DHT22;3267;48.794;9.928;2023-08-01T18:52:31;24.60;56.60
6468;DHT22;3267;48.794;9.928;2023-08-01T18:54:58;24.60;57.20
6468;DHT22;3267;48.794;9.928;2023-08-01T18:57:24;24.50;57.50
6468;DHT22;3267;48.794;9.928;2023-08-01T18:59:53;24.40;57.00
6468;DHT22;3267;48.794;9.928;2023-08-01T19:02:25;24.30;57.40
6468;DHT22;3267;48.794;9.928;2023-08-01T19:04:50;24.10;56.60
6468;DHT22;3267;48.794;9.928;2023-08-01T19:07:16;24.10;57.00
6468;DHT22;3267;48.794;9.928;2023-08-01T19:09:42;24.00;57.50
6468;DHT22;3267;48.794;9.928;2023-08-01T19:12:08;24.00;57.70
6468;DHT22;3267;48.794;9.928;2023-08-01T19:14:33;23.80;56.60
6468;DHT22;3267;48.794;9.928;2023-08-01T19:16:59;23.70;57.40
6468;DHT22;3267;48.794;9.928;2023-08-01T19:19:24;23.70;57.30
6468;DHT22;3267;48.794;9.928;2023-08-01T19:21:50;23.60;57.50
6468;DHT22;3267;48.794;9.928;2023-08-01T19:24:16;23.50;57.20
6468;DHT22;3267;48.794;9.928;2023-08-01T19:26:41;23.50;57.60
6468;DHT22;3267;48.794;9.928;2023-08-01T19:29:07;23.30;57.10
6468;DHT22;3267;48.794;9.928;2023-08-01T19:31:34;23.30;57.40
6468;DHT22;3267;48.794;9.928;2023-08-01T19:33:59;23.30;57.60
6468;DHT22;3267;48.794;9.928;2023-08-01T19:36:26;23.30;57.90
6468;DHT22;3267;48.794;9.928;2023-08-01T19:38:51;23.30;57.80
6468;DHT22;3267;48.794;9.928;2023-08-01T19:41:17;23.10;57.30
6468;DHT22;3267;48.794;9.928;2023-08-01T19:43:42;23.10;57.20
6468;DHT22;3267;48.794;9.928;2023-08-01T19:46:13;23.80;57.90
6468;DHT22;3267;48.794;9.928;2023-08-01T19:48:40;23.20;57.70
6468;DHT22;3267;48.794;9.928;2023-08-01T19:51:05;23.10;57.00
6468;DHT22;3267;48.794;9.928;2023-08-01T19:53:32;22.90;57.30
6468;DHT22;3267;48.794;9.928;2023-08-01T19:55:57;22.90;57.10
6468;DHT22;3267;48.794;9.928;2023-08-01T19:58:23;23.10;57.90
6468;DHT22;3267;48.794;9.928;2023-08-01T20:00:49;22.90;57.40
6468;DHT22;3267;48.794;9.928;2023-08-01T20:03:15;22.90;57.80